Time;durP1;ratioP1;P1;durP2;ratioP2;P2;SDS_P1;SDS_P2;PMS_P1;PMS_P2;Temp;Humidity;BMP_temperature;BMP_pressure;BME280_temperature;BME280_humidity;BME280_pressure;Samples;Min_cycle;Max_cycle;Signal;HPM_P1;HPM_P2
2023/01/13 00:01:42;;;;;;;5.22;1.73;;;9.40;67.70;;;;;;5073221;28;20029;-63
2023/01/13 00:04:10;;;;;;;3.15;1.50;;;9.40;67.70;;;;;;5085595;28;20028;-63
2023/01/13 00:06:35;;;;;;;2.67;1.20;;;9.40;67.70;;;;;;5087317;28;20032;-63
2023/01/13 00:09:01;;;;;;;3.72;1.27;;;9.40;67.70;;;;;;5075197;28;20043;-63
2023/01/13 00:11:27;;;;;;;3.65;1.80;;;9.40;67.70;;;;;;5079396;28;20034;-63
2023/01/13 00:13:53;;;;;;;3.97;1.38;;;9.40;67.80;;;;;;5074312;28;20418;-63
2023/01/13 00:16:19;;;;;;;3.58;1.40;;;9.40;67.80;;;;;;5069150;28;20067;-63
2023/01/13 00:18:46;;;;;;;3.15;1.38;;;9.40;67.90;;;;;;5070170;28;20029;-63
2023/01/13 00:21:20;;;;;;;3.05;1.52;;;9.40;67.90;;;;;;5073653;28;20029;-63
2023/01/13 00:23:47;;;;;;;3.15;1.40;;;9.40;67.90;;;;;;5078859;28;20925;-62
2023/01/13 00:26:18;;;;;;;3.30;1.40;;;9.40;67.90;;;;;;5075532;28;20025;-63
2023/01/13 00:28:44;;;;;;;3.28;1.40;;;9.50;68.00;;;;;;5073218;28;20390;-62
2023/01/13 00:31:12;;;;;;;2.38;1.40;;;9.40;67.90;;;;;;5074746;28;20024;-63
2023/01/13 00:33:38;;;;;;;3.22;1.40;;;9.40;68.00;;;;;;5077325;28;20047;-63
2023/01/13 00:36:06;;;;;;;5.05;1.30;;;9.40;68.00;;;;;;5086269;28;20028;-62
2023/01/13 00:38:34;;;;;;;3.63;1.45;;;9.40;68.00;;;;;;5078127;28;20940;-63
2023/01/13 00:41:08;;;;;;;4.65;1.33;;;9.40;68.00;;;;;;5076696;28;20116;-64
2023/01/13 00:43:36;;;;;;;4.00;1.48;;;9.40;68.00;;;;;;5075665;28;20037;-61
2023/01/13 00:46:05;;;;;;;3.85;1.40;;;9.40;68.00;;;;;;5079085;28;20384;-62
2023/01/13 00:48:32;;;;;;;6.15;1.60;;;9.40;68.00;;;;;;5081727;28;20046;-64
2023/01/13 00:51:00;;;;;;;4.65;1.42;;;9.50;68.80;;;;;;5076985;28;20060;-63
2023/01/13 00:53:26;;;;;;;2.75;1.50;;;9.50;68.10;;;;;;5081238;28;20028;-65
2023/01/13 00:56:06;;;;;;;3.58;1.38;;;9.50;68.10;;;;;;5075262;28;20566;-64
2023/01/13 00:58:33;;;;;;;2.30;1.40;;;9.50;68.10;;;;;;5079927;28;20024;-65
2023/01/13 01:01:03;;;;;;;2.38;1.48;;;9.50;68.10;;;;;;5074943;28;20066;-62
2023/01/13 01:03:29;;;;;;;4.80;1.42;;;9.50;68.10;;;;;;5077735;28;20096;-65
2023/01/13 01:05:55;;;;;;;4.55;1.40;;;9.50;68.10;;;;;;5081098;28;20060;-63
2023/01/13 01:08:21;;;;;;;2.95;1.27;;;9.50;68.10;;;;;;5079843;28;20020;-64
2023/01/13 01:10:46;;;;;;;3.42;1.27;;;9.60;68.10;;;;;;5074269;28;20029;-63
2023/01/13 01:13:16;;;;;;;4.57;1.40;;;9.60;68.10;;;;;;5080256;28;20069;-63
2023/01/13 01:15:42;;;;;;;4.47;1.38;;;9.60;68.10;;;;;;5075862;28;20104;-62
2023/01/13 01:18:08;;;;;;;4.35;1.40;;;9.60;68.00;;;;;;5073912;28;20450;-64
2023/01/13 01:20:35;;;;;;;1.80;1.23;;;9.60;68.00;;;;;;5073836;28;20024;-63
2023/01/13 01:23:00;;;;;;;5.07;1.70;;;9.60;67.90;;;;;;5072561;28;20060;-64
2023/01/13 01:25:26;;;;;;;2.45;1.52;;;9.60;68.00;;;;;;5083911;28;20028;-62
2023/01/13 01:27:52;;;;;;;3.40;1.80;;;9.60;67.90;;;;;;5076818;28;20051;-62
2023/01/13 01:30:18;;;;;;;2.72;1.55;;;9.60;67.90;;;;;;5072493;28;20036;-62
2023/01/13 01:32:44;;;;;;;6.95;1.63;;;9.60;67.90;;;;;;5070481;28;20044;-62
2023/01/13 01:35:09;;;;;;;2.63;1.50;;;9.60;67.90;;;;;;5084634;28;20099;-63
2023/01/13 01:37:35;;;;;;;3.40;1.40;;;9.60;67.90;;;;;;5078445;28;20059;-63
2023/01/13 01:40:01;;;;;;;4.03;1.48;;;9.60;67.90;;;;;;5081244;28;20025;-63
2023/01/13 01:45:21;;;;;;;3.47;1.67;;;9.60;68.00;;;;;;5077987;28;20074;-63
2023/01/13 01:47:55;;;;;;;2.33;1.20;;;9.60;68.60;;;;;;5075475;28;20839;-63
2023/01/13 01:50:21;;;;;;;1.77;1.15;;;9.50;67.80;;;;;;5079268;28;20059;-63
2023/01/13 01:52:53;;;;;;;2.80;1.60;;;9.50;67.80;;;;;;5078439;28;20073;-63
2023/01/13 01:55:22;;;;;;;2.50;1.20;;;9.60;67.90;;;;;;5080297;28;20028;-63
2023/01/13 01:58:02;;;;;;;4.93;1.67;;;9.50;67.80;;;;;;5075724;28;20138;-63
2023/01/13 02:00:28;;;;;;;5.05;1.73;;;9.50;67.80;;;;;;5070198;28;20032;-64
2023/01/13 02:02:54;;;;;;;5.38;1.92;;;9.50;67.80;;;;;;5078652;28;20079;-63
2023/01/13 02:05:21;;;;;;;3.40;1.40;;;9.50;67.90;;;;;;5073233;28;20035;-62
2023/01/13 02:07:48;;;;;;;3.97;1.42;;;9.50;68.00;;;;;;5070175;28;20408;-62
2023/01/13 02:10:18;;;;;;;4.72;1.38;;;9.50;68.00;;;;;;5078273;28;20024;-62
2023/01/13 02:12:46;;;;;;;4.88;1.30;;;9.50;68.10;;;;;;5071756;28;20367;-63
2023/01/13 02:15:13;;;;;;;2.17;1.20;;;9.50;68.10;;;;;;5079320;28;20081;-62
2023/01/13 02:18:16;;;;;;;5.00;1.38;;;9.50;68.00;;;;;;5085566;28;20103;-62
2023/01/13 02:20:50;;;;;;;3.72;1.10;;;9.60;68.10;;;;;;5068835;28;20420;-62
2023/01/13 02:26:22;;;;;;;3.67;1.17;;;9.60;68.20;;;;;;5079147;28;20039;-63
2023/01/13 02:32:07;;;;;;;2.65;1.20;;;9.60;68.50;;;;;;5078453;28;20039;-62
2023/01/13 02:34:40;;;;;;;1.75;1.00;;;9.60;68.20;;;;;;5083345;28;20043;-62
2023/01/13 02:37:10;;;;;;;4.28;1.30;;;9.70;68.30;;;;;;5076238;28;20021;-64
2023/01/13 02:39:46;;;;;;;4.10;1.10;;;9.70;68.40;;;;;;5081786;28;20029;-63
2023/01/13 02:45:34;;;;;;;2.33;1.45;;;9.70;68.40;;;;;;5080466;28;20040;-62
2023/01/13 02:48:03;;;;;;;4.70;1.17;;;9.70;68.20;;;;;;5082652;28;20020;-61
2023/01/13 02:50:43;;;;;;;2.28;1.20;;;9.70;68.20;;;;;;5077942;28;20054;-64
2023/01/13 02:53:37;;;;;;;4.32;1.27;;;9.70;68.20;;;;;;5073067;28;20043;-62
2023/01/13 02:56:05;;;;;;;4.38;1.10;;;9.80;68.00;;;;;;5076438;28;20047;-62
2023/01/13 02:58:33;;;;;;;1.55;1.13;;;9.80;68.00;;;;;;5079219;28;20025;-64
2023/01/13 03:00:59;;;;;;;1.50;1.02;;;9.90;68.00;;;;;;5075366;28;20027;-64
2023/01/13 03:03:25;;;;;;;2.05;1.25;;;9.80;67.90;;;;;;5080888;28;20028;-63
2023/01/13 03:05:55;;;;;;;1.98;1.10;;;9.80;67.80;;;;;;5076495;28;20021;-61
2023/01/13 03:08:26;;;;;;;2.30;1.02;;;9.90;67.70;;;;;;5074785;28;20025;-63
2023/01/13 03:11:19;;;;;;;3.70;1.20;;;9.80;67.30;;;;;;5077407;28;20028;-62
2023/01/13 03:14:00;;;;;;;2.67;1.20;;;9.90;67.00;;;;;;5079357;28;20051;-63
2023/01/13 03:17:24;;;;;;;2.08;1.25;;;9.90;67.00;;;;;;5075424;28;20049;-63
2023/01/13 03:19:52;;;;;;;2.85;1.40;;;9.90;66.60;;;;;;5053318;28;20094;-61
2023/01/13 03:22:36;;;;;;;2.55;1.40;;;9.90;66.70;;;;;;5051974;28;20639;-63
2023/01/13 03:25:19;;;;;;;2.05;1.20;;;9.90;66.70;;;;;;5035114;28;20029;-62
2023/01/13 03:27:55;;;;;;;3.70;1.30;;;9.90;66.40;;;;;;5056316;28;20802;-62
2023/01/13 03:30:28;;;;;;;4.82;1.77;;;9.90;66.40;;;;;;5054080;28;20037;-63
2023/01/13 03:33:15;;;;;;;2.17;1.20;;;9.90;66.50;;;;;;5051971;28;20100;-63
2023/01/13 03:35:45;;;;;;;1.40;1.20;;;9.90;66.40;;;;;;5052346;28;20021;-62
2023/01/13 03:38:16;;;;;;;2.35;1.30;;;9.90;66.50;;;;;;5055492;28;20476;-63
2023/01/13 03:40:55;;;;;;;2.05;1.40;;;9.90;66.50;;;;;;5057306;28;20094;-63
2023/01/13 03:46:24;;;;;;;1.90;1.17;;;9.80;66.30;;;;;;5046844;28;20048;-64
2023/01/13 03:48:55;;;;;;;1.90;1.25;;;9.80;66.30;;;;;;5051617;28;20124;-63
2023/01/13 03:51:24;;;;;;;2.03;1.35;;;9.80;66.30;;;;;;5049799;28;20435;-63
2023/01/13 03:53:56;;;;;;;1.60;1.25;;;9.80;66.40;;;;;;5063915;28;20427;-63
2023/01/13 03:56:25;;;;;;;1.95;1.20;;;9.80;66.10;;;;;;5069093;28;20021;-63
2023/01/13 03:58:52;;;;;;;2.67;1.20;;;9.80;66.30;;;;;;5084599;28;20085;-63
2023/01/13 04:01:26;;;;;;;5.00;1.73;;;9.80;66.20;;;;;;5070850;28;20143;-63
2023/01/13 04:04:09;;;;;;;2.58;1.40;;;9.80;66.10;;;;;;5078490;28;20021;-63
2023/01/13 04:06:40;;;;;;;2.30;1.40;;;9.80;66.00;;;;;;5075087;28;20097;-63
2023/01/13 04:09:32;;;;;;;3.17;1.45;;;9.70;66.10;;;;;;5077752;28;20029;-63
2023/01/13 04:12:12;;;;;;;3.95;1.30;;;9.70;65.60;;;;;;5072044;28;20041;-63
2023/01/13 04:14:38;;;;;;;1.38;1.15;;;9.70;65.90;;;;;;5081051;28;20068;-62
2023/01/13 04:17:04;;;;;;;3.05;1.33;;;9.70;66.00;;;;;;5068360;28;20028;-64
2023/01/13 04:19:31;;;;;;;5.20;1.38;;;9.70;65.90;;;;;;5079217;28;20116;-64
2023/01/13 04:21:57;;;;;;;2.42;1.40;;;9.70;65.80;;;;;;5079048;28;20350;-64
2023/01/13 04:24:23;;;;;;;1.77;1.30;;;9.70;65.90;;;;;;5080696;28;20032;-64
2023/01/13 04:26:49;;;;;;;5.13;1.70;;;9.70;65.90;;;;;;5082297;28;20031;-64
2023/01/13 04:29:15;;;;;;;2.63;1.50;;;9.70;65.90;;;;;;5079761;28;20028;-64
2023/01/13 04:31:41;;;;;;;4.25;1.70;;;9.70;65.90;;;;;;5073306;28;20104;-64
2023/01/13 04:34:08;;;;;;;4.13;1.27;;;9.60;65.90;;;;;;5076857;28;20037;-63
2023/01/13 04:36:34;;;;;;;5.38;1.23;;;9.60;65.80;;;;;;5081147;28;20009;-63
2023/01/13 04:39:00;;;;;;;2.50;1.58;;;9.60;65.80;;;;;;5076351;28;20078;-63
2023/01/13 04:41:26;;;;;;;2.65;1.52;;;9.60;65.80;;;;;;5078418;28;20376;-62
2023/01/13 04:43:51;;;;;;;4.00;1.60;;;9.70;65.80;;;;;;5074689;28;20025;-62
2023/01/13 04:46:17;;;;;;;2.42;1.20;;;9.60;65.90;;;;;;5082715;28;20028;-63
2023/01/13 04:48:43;;;;;;;2.78;1.35;;;9.60;65.80;;;;;;5076283;28;20024;-62
2023/01/13 04:51:08;;;;;;;3.28;1.40;;;9.60;65.70;;;;;;5076100;28;20115;-65
2023/01/13 04:53:34;;;;;;;3.65;1.45;;;9.60;65.80;;;;;;5076442;28;20079;-65
2023/01/13 04:56:00;;;;;;;2.60;1.40;;;9.60;65.70;;;;;;5076230;28;20033;-63
2023/01/13 04:58:25;;;;;;;3.28;1.30;;;9.60;65.90;;;;;;5074444;28;20108;-62
2023/01/13 05:00:51;;;;;;;3.08;1.50;;;9.60;65.90;;;;;;5077925;28;20130;-63
2023/01/13 05:03:17;;;;;;;2.33;1.38;;;9.50;65.80;;;;;;5074133;28;20024;-63
2023/01/13 05:05:44;;;;;;;3.67;1.75;;;9.50;65.80;;;;;;5077716;28;20017;-63
2023/01/13 05:08:09;;;;;;;2.22;1.33;;;9.50;66.00;;;;;;5076709;28;20079;-65
2023/01/13 05:10:35;;;;;;;2.05;1.40;;;9.50;66.00;;;;;;5078735;28;20510;-65
2023/01/13 05:18:30;;;;;;;3.47;1.55;;;9.50;66.50;;;;;;5073188;28;20471;-63
2023/01/13 05:20:56;;;;;;;3.25;1.67;;;9.50;66.20;;;;;;5075150;28;20266;-64
2023/01/13 05:26:06;;;;;;;4.45;1.33;;;9.40;66.20;;;;;;5081665;28;20067;-64
2023/01/13 05:28:33;;;;;;;3.47;1.63;;;9.40;66.20;;;;;;5081055;28;20024;-64
2023/01/13 05:30:59;;;;;;;2.60;1.50;;;9.40;66.30;;;;;;5087817;28;20038;-64
2023/01/13 05:33:25;;;;;;;4.57;1.40;;;9.40;66.30;;;;;;5076034;28;20053;-64
2023/01/13 05:35:50;;;;;;;2.55;1.30;;;9.40;66.30;;;;;;5078714;28;20032;-64
2023/01/13 05:38:17;;;;;;;4.38;1.48;;;9.40;66.40;;;;;;5077331;28;20056;-64
2023/01/13 05:43:28;;;;;;;2.67;1.35;;;9.30;66.30;;;;;;5072887;28;20036;-63
2023/01/13 05:46:08;;;;;;;2.60;1.30;;;9.30;66.30;;;;;;5081848;28;20020;-62
2023/01/13 05:48:39;;;;;;;4.20;1.42;;;9.30;66.20;;;;;;5072331;28;20081;-62
2023/01/13 05:51:08;;;;;;;2.80;1.50;;;9.30;66.20;;;;;;5090192;28;20047;-63
2023/01/13 05:53:34;;;;;;;3.78;1.70;;;9.30;66.30;;;;;;5076819;28;20047;-63
2023/01/13 05:56:02;;;;;;;1.40;1.30;;;9.30;66.30;;;;;;5076756;28;20025;-63
2023/01/13 05:58:28;;;;;;;2.15;1.60;;;9.30;66.40;;;;;;5073523;28;20059;-62
2023/01/13 06:01:00;;;;;;;6.03;1.70;;;9.30;66.40;;;;;;5076753;28;20076;-62
2023/01/13 06:03:25;;;;;;;5.35;1.60;;;9.30;66.50;;;;;;5070674;28;20029;-63
2023/01/13 06:05:57;;;;;;;3.33;1.50;;;9.20;66.60;;;;;;5077063;28;20021;-63
2023/01/13 06:08:23;;;;;;;1.75;1.42;;;9.20;66.60;;;;;;5085641;28;20035;-64
2023/01/13 06:10:48;;;;;;;2.97;1.58;;;9.20;66.70;;;;;;5081387;28;20047;-64
2023/01/13 06:13:14;;;;;;;3.28;1.63;;;9.30;66.80;;;;;;5082320;28;20039;-66
2023/01/13 06:15:40;;;;;;;2.70;1.60;;;9.30;66.90;;;;;;5077515;28;20051;-64
2023/01/13 06:18:06;;;;;;;4.05;1.55;;;9.30;67.00;;;;;;5083120;28;20036;-64
2023/01/13 06:20:31;;;;;;;4.15;1.88;;;9.30;67.00;;;;;;5083957;28;20502;-65
2023/01/13 06:22:59;;;;;;;2.88;1.73;;;9.30;67.10;;;;;;5075079;28;20029;-64
2023/01/13 06:25:36;;;;;;;3.40;1.50;;;9.30;67.20;;;;;;5083401;28;20070;-64
2023/01/13 06:28:02;;;;;;;3.03;1.60;;;9.30;67.20;;;;;;5083357;28;20032;-63
2023/01/13 06:30:42;;;;;;;2.00;1.40;;;9.30;67.20;;;;;;5083314;28;20036;-63
2023/01/13 06:33:12;;;;;;;1.80;1.20;;;9.30;67.40;;;;;;5069053;28;20061;-63
2023/01/13 06:35:42;;;;;;;1.92;1.50;;;9.40;67.50;;;;;;5073384;28;20036;-63
2023/01/13 06:38:11;;;;;;;1.90;1.35;;;9.40;67.60;;;;;;5076061;28;20084;-63
2023/01/13 06:40:37;;;;;;;2.13;1.30;;;9.40;67.70;;;;;;5091699;28;20021;-63
2023/01/13 06:43:15;;;;;;;1.30;1.10;;;9.40;67.70;;;;;;5072742;28;20082;-63
2023/01/13 06:45:52;;;;;;;1.33;1.20;;;9.40;67.80;;;;;;5075922;28;20062;-63
2023/01/13 06:48:31;;;;;;;1.20;1.10;;;9.50;68.00;;;;;;5070567;28;20024;-62
2023/01/13 06:50:57;;;;;;;2.20;1.30;;;9.50;68.00;;;;;;5078077;28;20048;-62
2023/01/13 06:53:23;;;;;;;1.45;1.20;;;9.50;67.90;;;;;;5077445;28;20063;-63
2023/01/13 06:55:49;;;;;;;1.40;1.30;;;9.60;68.00;;;;;;5077744;28;20036;-62
2023/01/13 06:58:15;;;;;;;2.17;1.30;;;9.60;68.10;;;;;;5073428;28;20490;-63
2023/01/13 07:00:40;;;;;;;3.25;1.17;;;9.70;68.10;;;;;;5076528;28;20051;-63
2023/01/13 07:03:13;;;;;;;1.85;1.20;;;9.60;68.20;;;;;;5077997;28;20470;-65
2023/01/13 07:05:41;;;;;;;2.40;1.38;;;9.70;68.30;;;;;;5081435;28;20032;-64
2023/01/13 07:08:08;;;;;;;1.70;1.60;;;9.70;68.40;;;;;;5084553;28;20032;-62
2023/01/13 07:10:35;;;;;;;1.38;1.20;;;9.80;68.50;;;;;;5079182;28;20386;-63
2023/01/13 07:15:57;;;;;;;2.35;1.23;;;9.80;68.50;;;;;;5077251;28;20040;-63
2023/01/13 07:18:24;;;;;;;2.22;1.40;;;9.90;68.60;;;;;;5077930;28;20481;-63
2023/01/13 07:21:01;;;;;;;4.60;1.40;;;9.90;68.60;;;;;;5072402;28;20048;-62
2023/01/13 07:23:28;;;;;;;2.65;1.50;;;10.00;68.70;;;;;;5075043;28;20031;-64
2023/01/13 07:25:55;;;;;;;5.20;1.40;;;10.00;68.60;;;;;;5079970;28;20074;-63
2023/01/13 07:28:21;;;;;;;2.60;1.40;;;10.00;68.70;;;;;;5076167;28;20020;-65
2023/01/13 07:30:47;;;;;;;1.27;1.10;;;10.10;68.80;;;;;;5080004;28;20032;-65
2023/01/13 07:33:13;;;;;;;4.57;1.20;;;10.10;68.60;;;;;;5079621;28;20028;-64
2023/01/13 07:35:38;;;;;;;1.23;1.10;;;10.10;68.60;;;;;;5075024;28;20032;-65
2023/01/13 07:38:04;;;;;;;2.35;1.10;;;10.20;68.60;;;;;;5076191;28;20058;-65
2023/01/13 07:40:30;;;;;;;2.35;0.95;;;10.20;68.70;;;;;;5074708;28;20032;-65
2023/01/13 07:45:40;;;;;;;2.30;1.20;;;10.20;68.60;;;;;;5070592;28;20043;-64
2023/01/13 07:48:05;;;;;;;2.00;1.10;;;10.30;68.60;;;;;;5073443;28;20029;-63
2023/01/13 07:50:31;;;;;;;5.63;1.25;;;10.30;69.30;;;;;;5075490;28;20048;-64
2023/01/13 07:52:57;;;;;;;1.27;0.90;;;10.30;68.60;;;;;;5083358;28;20057;-63
2023/01/13 07:55:23;;;;;;;2.40;1.05;;;10.30;68.50;;;;;;5084145;28;20036;-64
2023/01/13 07:57:49;;;;;;;2.30;1.20;;;10.30;68.50;;;;;;5073820;28;20021;-63
2023/01/13 08:00:15;;;;;;;2.03;1.20;;;10.30;68.50;;;;;;5068878;28;20026;-64
2023/01/13 08:02:41;;;;;;;1.83;1.00;;;10.30;68.60;;;;;;5071074;28;20625;-63
2023/01/13 08:05:07;;;;;;;1.90;1.05;;;10.40;68.60;;;;;;5071135;28;20044;-64
2023/01/13 08:07:33;;;;;;;2.88;1.30;;;10.40;68.60;;;;;;5076292;28;20040;-64
2023/01/13 08:10:00;;;;;;;3.03;1.42;;;10.40;68.50;;;;;;5072099;28;20032;-64
2023/01/13 08:15:10;;;;;;;1.83;1.20;;;10.40;68.60;;;;;;5074060;28;20042;-65
2023/01/13 08:17:36;;;;;;;5.38;1.50;;;10.40;68.50;;;;;;5075121;28;20021;-63
2023/01/13 08:20:03;;;;;;;1.42;1.10;;;10.50;68.60;;;;;;5074163;28;20028;-65
2023/01/13 08:22:29;;;;;;;1.85;1.13;;;10.50;68.70;;;;;;5081472;28;20072;-65
2023/01/13 08:24:56;;;;;;;1.83;1.10;;;10.50;68.70;;;;;;5081051;28;20057;-64
2023/01/13 08:27:22;;;;;;;3.22;1.23;;;10.50;68.70;;;;;;5073674;28;20021;-64
2023/01/13 08:29:47;;;;;;;1.42;0.82;;;10.50;68.70;;;;;;5079755;28;20035;-64
2023/01/13 08:32:13;;;;;;;2.70;1.25;;;10.80;68.90;;;;;;5075325;28;20033;-63
2023/01/13 08:34:38;;;;;;;1.20;1.08;;;10.60;68.60;;;;;;5082465;28;20032;-64
2023/01/13 08:37:04;;;;;;;3.10;1.20;;;10.60;68.60;;;;;;5075508;28;20082;-64
2023/01/13 08:39:30;;;;;;;2.47;1.00;;;10.70;68.50;;;;;;5072180;28;20024;-64
2023/01/13 08:41:57;;;;;;;1.40;0.98;;;10.60;68.50;;;;;;5077363;28;20031;-63
2023/01/13 08:44:27;;;;;;;1.42;0.80;;;10.70;68.50;;;;;;5076053;28;20024;-65
2023/01/13 08:46:53;;;;;;;1.35;1.00;;;10.70;68.50;;;;;;5062914;28;20020;-64
2023/01/13 08:49:20;;;;;;;1.55;1.00;;;10.70;68.50;;;;;;5074805;28;20025;-64
2023/01/13 08:51:45;;;;;;;3.75;1.20;;;10.70;68.50;;;;;;5075557;28;20118;-64
2023/01/13 08:54:11;;;;;;;6.70;1.20;;;10.70;68.40;;;;;;5069437;28;20462;-65
2023/01/13 08:56:37;;;;;;;2.25;1.10;;;10.80;68.50;;;;;;5080008;28;20042;-64
2023/01/13 08:59:03;;;;;;;1.02;0.90;;;10.80;68.60;;;;;;5084102;28;20071;-65
2023/01/13 09:01:29;;;;;;;1.10;1.00;;;10.90;68.60;;;;;;5088705;28;20527;-64
2023/01/13 09:03:55;;;;;;;1.05;0.85;;;10.80;68.60;;;;;;5087937;28;20035;-64
2023/01/13 09:06:20;;;;;;;1.48;1.00;;;10.90;68.60;;;;;;5078279;28;20600;-65
2023/01/13 09:08:46;;;;;;;1.50;0.95;;;10.90;68.60;;;;;;5070519;28;20028;-66
2023/01/13 09:14:28;;;;;;;1.52;1.17;;;11.00;68.70;;;;;;5071649;28;20051;-66
2023/01/13 09:16:54;;;;;;;4.25;1.00;;;11.00;68.60;;;;;;5072701;28;20102;-65
2023/01/13 09:19:20;;;;;;;1.75;1.05;;;11.10;68.60;;;;;;5072440;28;20499;-64
2023/01/13 09:21:45;;;;;;;1.20;0.90;;;11.20;68.70;;;;;;5086169;28;20531;-63
2023/01/13 09:24:11;;;;;;;1.85;1.00;;;11.20;68.50;;;;;;5082092;28;20533;-65
2023/01/13 09:26:37;;;;;;;1.30;1.00;;;11.30;68.70;;;;;;5083052;28;20062;-64
2023/01/13 09:29:03;;;;;;;1.20;0.90;;;11.40;68.90;;;;;;5074543;28;20035;-64
2023/01/13 09:31:33;;;;;;;1.15;0.82;;;11.50;69.00;;;;;;5076507;28;20905;-65
2023/01/13 09:36:47;;;;;;;1.33;0.90;;;11.60;68.80;;;;;;5085438;28;20068;-65
2023/01/13 09:39:13;;;;;;;0.85;0.70;;;11.70;68.50;;;;;;5078454;28;20021;-64
2023/01/13 09:45:08;;;;;;;2.67;0.90;;;11.70;68.30;;;;;;5071251;28;20158;-65
2023/01/13 09:47:43;;;;;;;1.02;0.85;;;11.80;68.30;;;;;;4990869;28;20069;-66
2023/01/13 09:50:44;;;;;;;0.88;0.70;;;11.80;68.20;;;;;;4999410;28;20049;-65
2023/01/13 09:53:18;;;;;;;0.93;0.80;;;11.80;68.20;;;;;;4997596;28;20039;-65
2023/01/13 09:55:44;;;;;;;0.90;0.80;;;11.80;68.10;;;;;;4998437;28;20443;-65
2023/01/13 09:58:15;;;;;;;1.77;0.80;;;11.70;68.00;;;;;;4981026;28;20023;-66
2023/01/13 10:01:25;;;;;;;1.48;0.77;;;11.70;68.10;;;;;;4996981;28;20124;-65
2023/01/13 10:03:51;;;;;;;1.30;0.90;;;11.70;68.70;;;;;;5001963;28;20468;-64
2023/01/13 10:06:22;;;;;;;1.30;0.82;;;11.60;68.40;;;;;;5003674;28;20022;-64
2023/01/13 10:08:49;;;;;;;2.33;1.30;;;11.60;68.60;;;;;;4995908;28;20333;-64
2023/01/13 10:14:29;;;;;;;2.55;1.27;;;11.60;69.10;;;;;;4997970;28;20106;-62
2023/01/13 10:17:32;;;;;;;2.20;0.88;;;11.60;69.80;;;;;;4998161;28;20030;-63
2023/01/13 10:20:17;;;;;;;2.35;1.13;;;11.60;69.50;;;;;;4996456;28;20417;-64
2023/01/13 10:23:07;;;;;;;3.60;1.38;;;11.60;69.60;;;;;;5080914;28;20044;-63
2023/01/13 10:25:53;;;;;;;1.77;0.90;;;11.60;69.70;;;;;;5071849;28;20024;-65
2023/01/13 10:28:18;;;;;;;2.08;0.93;;;11.60;69.80;;;;;;5079970;28;20087;-62
2023/01/13 10:30:46;;;;;;;5.40;0.90;;;11.60;69.60;;;;;;5083758;28;20394;-64
2023/01/13 10:33:23;;;;;;;1.65;0.80;;;11.50;69.90;;;;;;5067397;28;20049;-62
2023/01/13 10:35:55;;;;;;;1.98;0.70;;;11.50;70.60;;;;;;5073221;28;20036;-63
2023/01/13 10:38:34;;;;;;;0.82;0.70;;;11.60;70.30;;;;;;5068613;28;20025;-63
2023/01/13 10:41:05;;;;;;;0.93;0.77;;;11.50;70.70;;;;;;5082204;28;20029;-63
2023/01/13 10:43:31;;;;;;;1.88;0.90;;;11.50;70.70;;;;;;5082946;28;20021;-63
2023/01/13 10:46:01;;;;;;;2.40;1.63;;;11.50;70.90;;;;;;5074590;28;20022;-63
2023/01/13 10:48:36;;;;;;;4.38;2.20;;;11.50;71.20;;;;;;5066064;28;20025;-64
2023/01/13 10:51:09;;;;;;;1.88;1.13;;;11.50;71.60;;;;;;5077067;28;20113;-63
2023/01/13 10:53:49;;;;;;;1.08;0.82;;;11.40;71.60;;;;;;5077815;28;20033;-63
2023/01/13 10:56:17;;;;;;;1.08;0.80;;;11.40;71.30;;;;;;5073398;28;20025;-64
2023/01/13 10:58:43;;;;;;;1.10;1.00;;;11.40;70.70;;;;;;5085998;28;20059;-63
2023/01/13 11:01:19;;;;;;;0.63;0.60;;;11.30;70.40;;;;;;5077141;28;20036;-64
2023/01/13 11:03:46;;;;;;;0.68;0.68;;;11.30;70.90;;;;;;5083727;28;20353;-62
2023/01/13 11:06:24;;;;;;;1.40;0.70;;;11.20;70.60;;;;;;5073976;28;20020;-63
2023/01/13 11:08:54;;;;;;;0.60;0.60;;;11.20;70.80;;;;;;5072015;28;20044;-65
2023/01/13 11:11:46;;;;;;;1.35;0.63;;;11.10;70.80;;;;;;5078882;28;20029;-62
2023/01/13 11:14:35;;;;;;;1.08;0.70;;;11.10;71.40;;;;;;5074645;28;20054;-64
2023/01/13 11:17:32;;;;;;;0.80;0.80;;;11.10;71.30;;;;;;5073123;28;20029;-63
2023/01/13 11:20:18;;;;;;;1.23;0.90;;;11.20;71.20;;;;;;5075658;28;20039;-65
2023/01/13 11:22:48;;;;;;;0.60;0.60;;;11.10;71.20;;;;;;5070096;28;20026;-63
2023/01/13 11:25:31;;;;;;;0.60;0.60;;;11.10;71.00;;;;;;5074026;28;20097;-63
2023/01/13 11:28:04;;;;;;;0.65;0.65;;;11.10;71.10;;;;;;5073074;28;20028;-62
2023/01/13 11:31:07;;;;;;;0.60;0.60;;;11.10;70.90;;;;;;5083636;28;20043;-65
2023/01/13 11:33:51;;;;;;;2.28;0.70;;;11.10;71.50;;;;;;5066492;28;20067;-64
2023/01/13 11:36:21;;;;;;;1.05;0.60;;;11.10;70.90;;;;;;5076606;28;20032;-63
2023/01/13 11:38:54;;;;;;;0.70;0.70;;;11.10;71.10;;;;;;5079440;28;20055;-65
2023/01/13 11:41:30;;;;;;;1.55;0.93;;;11.10;71.50;;;;;;5072307;28;20020;-64
2023/01/13 11:44:18;;;;;;;1.48;0.98;;;11.10;72.10;;;;;;5077981;28;20016;-64
2023/01/13 11:46:46;;;;;;;0.80;0.80;;;11.20;71.80;;;;;;5080219;28;20037;-64
2023/01/13 11:49:23;;;;;;;0.98;0.70;;;11.20;71.20;;;;;;5082357;28;20028;-64
2023/01/13 11:51:56;;;;;;;1.30;0.70;;;11.30;71.20;;;;;;5074744;28;20044;-63
2023/01/13 11:54:44;;;;;;;0.80;0.80;;;11.20;71.00;;;;;;5073784;28;20032;-64
2023/01/13 11:57:34;;;;;;;0.60;0.60;;;11.30;71.30;;;;;;5068781;28;20057;-65
2023/01/13 12:00:12;;;;;;;1.17;0.70;;;11.30;70.90;;;;;;5073822;28;20092;-63
2023/01/13 12:03:14;;;;;;;3.58;2.45;;;11.30;70.80;;;;;;5099758;28;20503;-65
2023/01/13 12:05:45;;;;;;;1.13;1.02;;;11.30;70.70;;;;;;5079554;28;20103;-65
2023/01/13 12:08:29;;;;;;;1.08;0.98;;;11.30;70.30;;;;;;5079874;28;20027;-63
2023/01/13 12:11:16;;;;;;;1.40;0.80;;;11.30;70.20;;;;;;5070106;28;20021;-63
2023/01/13 12:14:09;;;;;;;0.60;0.60;;;11.10;69.80;;;;;;5077899;28;21764;-63
2023/01/13 12:16:41;;;;;;;0.70;0.65;;;11.00;69.60;;;;;;5075121;28;20050;-64
2023/01/13 12:19:20;;;;;;;0.77;0.50;;;10.90;69.00;;;;;;5082465;28;20119;-63
2023/01/13 12:22:16;;;;;;;0.63;0.63;;;10.80;69.10;;;;;;5079925;28;20103;-63
2023/01/13 12:25:07;;;;;;;0.50;0.50;;;10.60;69.30;;;;;;5074002;28;20079;-65
2023/01/13 12:27:48;;;;;;;0.60;0.55;;;10.50;69.60;;;;;;5070752;28;20024;-61
2023/01/13 12:30:25;;;;;;;3.05;0.98;;;10.40;69.50;;;;;;5073849;28;20029;-64
2023/01/13 12:32:55;;;;;;;0.95;0.80;;;10.30;69.70;;;;;;5075421;28;20028;-63
2023/01/13 12:35:44;;;;;;;0.95;0.90;;;10.20;69.80;;;;;;5079262;28;20533;-63
2023/01/13 12:38:27;;;;;;;0.82;0.75;;;10.10;69.90;;;;;;5080742;28;20028;-64
2023/01/13 12:41:09;;;;;;;1.45;0.70;;;10.10;70.40;;;;;;5075928;28;20029;-64
2023/01/13 12:46:20;;;;;;;1.58;0.80;;;10.00;69.80;;;;;;5074785;28;20075;-64
2023/01/13 12:49:01;;;;;;;1.90;1.35;;;9.90;69.80;;;;;;5078365;28;20028;-64
2023/01/13 12:51:31;;;;;;;3.28;1.30;;;9.90;69.90;;;;;;5086788;28;20067;-64
2023/01/13 12:53:58;;;;;;;1.10;1.00;;;9.90;69.70;;;;;;5019781;28;20047;-64
2023/01/13 12:56:40;;;;;;;2.00;0.90;;;9.90;69.60;;;;;;5075108;28;20076;-64
2023/01/13 12:59:16;;;;;;;1.42;1.00;;;9.80;68.80;;;;;;5076566;28;20028;-63
2023/01/13 13:01:43;;;;;;;1.13;0.80;;;9.80;68.90;;;;;;5075864;28;20028;-63
2023/01/13 13:04:13;;;;;;;19.58;7.47;;;9.70;68.80;;;;;;5082267;28;20546;-63
2023/01/13 13:06:42;;;;;;;3.00;2.15;;;9.70;68.50;;;;;;5085500;28;20064;-64
2023/01/13 13:09:22;;;;;;;8.02;4.45;;;9.60;68.80;;;;;;5087160;28;20055;-63
2023/01/13 13:14:38;;;;;;;2.67;1.40;;;9.50;69.20;;;;;;5084537;28;20089;-64
2023/01/13 13:17:28;;;;;;;2.65;1.10;;;9.50;69.10;;;;;;5077131;28;20025;-63
2023/01/13 13:19:55;;;;;;;4.43;1.00;;;9.50;69.10;;;;;;5073320;28;20052;-63
2023/01/13 13:22:43;;;;;;;1.98;1.10;;;9.50;69.40;;;;;;5077367;28;20040;-64
2023/01/13 13:25:22;;;;;;;4.90;2.53;;;9.60;69.50;;;;;;5077823;28;20052;-64
2023/01/13 13:28:14;;;;;;;3.47;1.83;;;9.70;69.60;;;;;;5085809;28;20070;-64
2023/01/13 13:30:51;;;;;;;6.72;3.85;;;9.70;69.50;;;;;;5079508;28;20051;-63
2023/01/13 13:33:31;;;;;;;4.18;1.90;;;9.80;69.70;;;;;;5087386;28;20056;-65
2023/01/13 13:36:01;;;;;;;3.65;1.60;;;9.90;69.50;;;;;;5078501;28;20028;-65
2023/01/13 13:47:15;;;;;;;5.25;1.92;;;9.90;68.70;;;;;;5078717;28;20036;-64
2023/01/13 13:49:41;;;;;;;6.63;1.60;;;10.00;68.50;;;;;;5079985;28;20050;-64
2023/01/13 13:52:53;;;;;;;4.68;1.27;;;9.90;68.20;;;;;;5079986;28;20120;-64
2023/01/13 13:55:19;;;;;;;5.13;1.20;;;9.90;67.60;;;;;;5036780;28;20057;-63
2023/01/13 13:57:56;;;;;;;5.15;1.13;;;9.90;68.10;;;;;;5040396;28;20049;-63
2023/01/13 14:00:29;;;;;;;7.13;1.38;;;9.90;67.80;;;;;;5036680;28;20576;-63
2023/01/13 14:03:00;;;;;;;5.05;1.33;;;9.90;67.80;;;;;;5029603;28;20102;-63
2023/01/13 14:05:34;;;;;;;2.97;1.40;;;9.90;67.40;;;;;;5035908;28;20048;-63
2023/01/13 14:08:13;;;;;;;3.83;1.40;;;9.90;67.30;;;;;;5039265;28;20432;-64
2023/01/13 14:10:41;;;;;;;4.85;2.05;;;9.90;67.40;;;;;;5036986;28;20049;-64
2023/01/13 14:13:27;;;;;;;4.55;1.50;;;9.90;67.40;;;;;;5035637;28;20037;-63
2023/01/13 14:16:09;;;;;;;6.35;1.58;;;9.80;66.90;;;;;;5043277;28;20029;-66
2023/01/13 14:18:44;;;;;;;3.38;1.17;;;9.90;67.20;;;;;;5045619;28;20060;-65